Time;durP1;ratioP1;P1;durP2;ratioP2;P2;SDS_P1;SDS_P2;PMS_P1;PMS_P2;Temp;Humidity;BMP_temperature;BMP_pressure;BME280_temperature;BME280_humidity;BME280_pressure;Samples;Min_cycle;Max_cycle;Signal;HPM_P1;HPM_P2
2021/12/14 00:00:55;;;;;;;37.15;19.10;;;;;;;8.67;69.98;100222.94;5103836;29;20024;-70
2021/12/14 00:03:49;;;;;;;32.30;18.55;;;;;;;8.07;72.22;100210.09;5105035;29;20233;-70
2021/12/14 00:06:41;;;;;;;31.00;18.02;;;;;;;8.23;71.23;100216.09;5102166;29;20066;-70
2021/12/14 00:09:35;;;;;;;32.22;18.63;;;;;;;8.40;70.95;100223.81;5085028;29;20047;-69
2021/12/14 00:15:16;;;;;;;36.42;19.52;;;;;;;8.28;71.45;100226.34;5083966;29;20099;-70
2021/12/14 00:18:11;;;;;;;36.13;19.17;;;;;;;8.50;70.16;100223.22;5088308;29;20062;-70
2021/12/14 00:21:09;;;;;;;34.80;19.38;;;;;;;8.40;70.29;100207.94;5097696;29;20435;-70
2021/12/14 00:24:06;;;;;;;37.70;20.58;;;;;;;8.10;71.87;100215.19;5096704;29;20054;-70
2021/12/14 00:27:04;;;;;;;37.42;19.95;;;;;;;8.30;71.73;100220.03;5083648;29;20055;-70
2021/12/14 00:29:58;;;;;;;33.33;19.42;;;;;;;8.19;71.33;100211.97;5083677;29;20602;-70
2021/12/14 00:32:49;;;;;;;35.85;18.95;;;;;;;7.87;72.16;100196.38;5083279;29;20052;-70
2021/12/14 00:35:39;;;;;;;41.15;20.85;;;;;;;7.96;71.64;100193.16;5095749;29;20451;-70
2021/12/14 00:38:30;;;;;;;36.45;19.90;;;;;;;8.30;71.21;100213.91;5113928;29;20575;-69
2021/12/14 00:41:30;;;;;;;38.33;19.92;;;;;;;8.43;70.74;100220.13;5102686;29;20509;-70
2021/12/14 00:44:21;;;;;;;37.22;19.73;;;;;;;8.55;69.79;100223.78;5103057;29;20703;-70
2021/12/14 00:47:11;;;;;;;38.75;19.85;;;;;;;8.23;71.03;100229.31;5102432;29;20207;-69
2021/12/14 00:50:03;;;;;;;32.25;18.42;;;;;;;8.11;71.73;100224.81;5097940;29;20508;-70
2021/12/14 00:52:53;;;;;;;36.53;20.63;;;;;;;8.10;72.39;100233.69;5102531;29;20048;-70
2021/12/14 00:55:47;;;;;;;34.63;19.23;;;;;;;8.52;70.42;100223.97;5102245;29;20052;-70
2021/12/14 00:58:38;;;;;;;32.63;18.98;;;;;;;8.45;70.43;100237.59;5103227;29;20055;-70
2021/12/14 01:01:33;;;;;;;29.80;17.40;;;;;;;7.91;72.33;100224.31;5101981;29;20541;-70
2021/12/14 01:04:32;;;;;;;33.88;18.10;;;;;;;7.79;73.46;100225.06;5102093;29;20127;-70
2021/12/14 01:07:25;;;;;;;35.03;18.25;;;;;;;8.32;70.09;100239.28;5100823;29;20524;-70
2021/12/14 01:10:29;;;;;;;39.03;18.33;;;;;;;8.40;70.16;100250.22;5096316;29;20081;-70
2021/12/14 01:13:25;;;;;;;35.90;18.35;;;;;;;8.02;72.07;100241.25;5068722;29;20063;-70
2021/12/14 01:16:30;;;;;;;30.60;17.02;;;;;;;8.07;72.17;100257.66;5081559;29;20048;-70
2021/12/14 01:19:28;;;;;;;33.95;17.58;;;;;;;7.77;73.53;100254.19;5093769;29;20182;-69
2021/12/14 01:22:45;;;;;;;37.53;17.65;;;;;;;8.07;72.27;100245.28;5100825;29;20251;-70
2021/12/14 01:25:37;;;;;;;36.70;17.73;;;;;;;8.11;72.28;100251.22;5113603;28;20083;-70
2021/12/14 01:28:29;;;;;;;36.90;18.08;;;;;;;7.77;72.70;100258.63;5100981;29;20054;-69
2021/12/14 01:31:29;;;;;;;37.55;19.30;;;;;;;7.54;73.66;100245.03;5101903;29;20114;-70
2021/12/14 01:34:22;;;;;;;35.88;19.13;;;;;;;8.00;71.89;100259.81;5102225;29;20142;-70
2021/12/14 01:37:18;;;;;;;35.78;19.17;;;;;;;8.21;71.56;100257.63;5101093;29;20058;-70
2021/12/14 01:40:18;;;;;;;38.95;19.65;;;;;;;8.12;72.45;100258.22;5114341;29;20058;-70
2021/12/14 01:43:10;;;;;;;38.65;19.63;;;;;;;8.03;71.87;100248.22;5114805;29;20518;-69
2021/12/14 01:46:10;;;;;;;42.72;19.75;;;;;;;7.75;73.31;100261.38;5114117;29;20143;-70
2021/12/14 01:49:06;;;;;;;43.75;21.83;;;;;;;7.77;73.15;100264.75;5113342;29;20051;-69
2021/12/14 01:52:31;;;;;;;38.63;19.92;;;;;;;8.36;70.97;100250.50;5055734;29;20152;-70
2021/12/14 01:55:27;;;;;;;41.88;21.60;;;;;;;8.10;72.29;100247.72;5095514;29;20580;-70
2021/12/14 01:58:19;;;;;;;39.90;21.85;;;;;;;7.67;73.67;100258.34;5091680;29;20074;-70
2021/12/14 02:01:14;;;;;;;52.15;22.30;;;;;;;7.75;74.13;100256.09;5118063;29;20055;-70
2021/12/14 02:04:15;;;;;;;44.63;21.25;;;;;;;7.71;73.12;100237.88;5105355;29;20587;-70
2021/12/14 02:07:08;;;;;;;49.83;23.25;;;;;;;8.08;71.89;100256.69;5118037;29;20190;-70
2021/12/14 02:10:07;;;;;;;47.92;23.70;;;;;;;7.99;72.90;100256.34;5104366;29;20050;-70
2021/12/14 02:12:58;;;;;;;41.58;22.17;;;;;;;7.53;74.39;100251.28;5104882;29;20194;-71
2021/12/14 02:15:52;;;;;;;44.72;22.30;;;;;;;7.43;74.99;100252.78;5118120;29;20044;-70
2021/12/14 02:18:53;;;;;;;42.95;22.85;;;;;;;7.86;72.63;100257.22;5117685;29;20043;-70
2021/12/14 02:21:46;;;;;;;48.03;24.20;;;;;;;8.06;72.20;100250.69;5102422;29;20126;-70
2021/12/14 02:24:39;;;;;;;46.47;23.80;;;;;;;7.96;72.16;100251.25;5104552;29;20702;-70
2021/12/14 02:27:39;;;;;;;44.75;23.02;;;;;;;8.21;72.64;100254.97;5104562;29;20075;-70
2021/12/14 02:30:30;;;;;;;48.75;23.35;;;;;;;8.11;72.17;100252.09;5104579;29;20047;-70
2021/12/14 02:33:32;;;;;;;45.78;22.27;;;;;;;8.30;70.96;100246.47;5106092;29;20174;-71
2021/12/14 02:36:38;;;;;;;47.92;23.05;;;;;;;8.79;69.81;100248.59;5103903;29;20408;-71
2021/12/14 02:42:32;;;;;;;52.53;24.00;;;;;;;7.86;72.40;100246.66;5086296;29;20051;-70
2021/12/14 02:45:23;;;;;;;54.83;25.25;;;;;;;7.86;72.58;100242.22;5085190;29;20475;-70
2021/12/14 02:48:15;;;;;;;58.95;24.73;;;;;;;7.73;73.35;100241.28;5085154;29;20055;-70
2021/12/14 02:51:09;;;;;;;53.63;24.52;;;;;;;7.86;72.70;100238.72;5101805;29;20095;-70
2021/12/14 02:54:15;;;;;;;51.30;23.98;;;;;;;8.51;70.68;100243.41;5104060;29;20130;-70
2021/12/14 02:57:14;;;;;;;53.17;25.00;;;;;;;8.33;70.45;100233.06;5101934;29;20662;-70
2021/12/14 03:00:12;;;;;;;54.63;24.05;;;;;;;8.39;71.03;100245.91;5104031;29;20172;-70
2021/12/14 03:03:04;;;;;;;53.38;24.35;;;;;;;8.38;70.57;100243.38;5104853;29;20078;-70
2021/12/14 03:05:59;;;;;;;58.22;22.60;;;;;;;8.16;72.31;100254.44;5103634;29;20178;-70
2021/12/14 03:09:06;;;;;;;;;;;;;;;8.28;71.76;100244.84;5117986;29;20062;-70
2021/12/14 03:12:03;;;;;;;55.55;22.38;;;;;;;8.38;70.43;100238.94;5103682;29;20005;-70
2021/12/14 03:14:58;;;;;;;55.40;22.20;;;;;;;8.80;69.32;100233.56;5104904;29;20597;-70
2021/12/14 03:17:52;;;;;;;65.93;26.00;;;;;;;8.50;70.92;100236.44;5112202;28;20100;-70
2021/12/14 03:20:47;;;;;;;53.63;23.42;;;;;;;8.24;70.45;100217.78;5104532;29;20422;-70
2021/12/14 03:23:41;;;;;;;57.63;23.85;;;;;;;8.20;71.76;100235.63;5099395;29;20047;-70
2021/12/14 03:26:36;;;;;;;55.75;22.58;;;;;;;8.10;71.25;100238.97;5103068;29;20571;-70
2021/12/14 03:29:31;;;;;;;47.53;21.73;;;;;;;8.19;71.38;100248.97;5102009;29;20066;-70
2021/12/14 03:32:21;;;;;;;41.47;18.20;;;;;;;8.07;72.30;100247.94;5116369;29;20051;-71
2021/12/14 03:35:11;;;;;;;34.80;15.48;;;;;;;8.15;71.26;100253.59;5100031;29;20116;-70
2021/12/14 03:38:09;;;;;;;36.95;14.57;;;;;;;8.12;71.37;100259.06;5083653;29;20218;-70
2021/12/14 03:41:06;;;;;;;33.53;14.23;;;;;;;8.16;71.48;100257.06;5115995;23;20135;-68
2021/12/14 03:44:05;;;;;;;32.72;14.15;;;;;;;8.19;71.37;100252.44;5121780;28;20052;-66
2021/12/14 03:47:15;;;;;;;32.85;14.18;;;;;;;8.08;70.74;100256.69;5102768;29;20138;-66
2021/12/14 03:50:19;;;;;;;32.83;14.02;;;;;;;7.93;71.65;100258.53;5114306;29;20058;-66
2021/12/14 03:53:11;;;;;;;36.65;15.20;;;;;;;7.81;72.35;100265.41;5096501;29;20414;-66
2021/12/14 03:56:05;;;;;;;35.38;14.20;;;;;;;7.94;71.20;100263.69;5097275;29;20055;-68
2021/12/14 03:58:56;;;;;;;35.55;14.75;;;;;;;7.72;72.81;100266.00;5103023;29;20106;-68
2021/12/14 04:01:50;;;;;;;34.78;15.68;;;;;;;7.76;71.91;100249.84;5102239;29;20525;-66
2021/12/14 04:04:47;;;;;;;40.25;17.15;;;;;;;7.81;72.71;100261.91;5102487;29;20059;-66
2021/12/14 04:07:42;;;;;;;47.60;18.98;;;;;;;7.84;72.36;100249.38;5101959;29;20118;-68
2021/12/14 04:10:42;;;;;;;46.88;18.05;;;;;;;7.97;71.87;100266.16;5097296;29;20055;-66
2021/12/14 04:13:38;;;;;;;47.00;18.77;;;;;;;7.51;73.79;100261.06;5097727;29;20158;-66
2021/12/14 04:16:33;;;;;;;46.22;19.08;;;;;;;7.93;71.94;100238.22;5101279;29;20151;-66
2021/12/14 04:19:28;;;;;;;47.47;18.65;;;;;;;7.96;71.56;100216.06;5101076;29;20059;-66
2021/12/14 04:22:24;;;;;;;42.28;17.52;;;;;;;8.09;71.17;100251.34;5096653;29;20127;-66
2021/12/14 04:25:19;;;;;;;45.13;17.85;;;;;;;8.09;71.92;100239.91;5100196;29;20279;-66
2021/12/14 04:28:13;;;;;;;44.58;16.77;;;;;;;8.14;70.76;100235.19;5093229;29;20566;-66
2021/12/14 04:31:03;;;;;;;48.17;17.27;;;;;;;7.65;73.40;100238.25;5101688;29;20106;-66
2021/12/14 04:33:55;;;;;;;45.80;17.77;;;;;;;7.79;72.66;100227.69;5101597;29;20052;-66
2021/12/14 04:36:52;;;;;;;46.65;17.00;;;;;;;7.92;71.71;100231.28;5108761;28;20059;-66
2021/12/14 04:39:57;;;;;;;55.50;18.65;;;;;;;7.95;71.64;100219.66;5089362;29;20419;-66
2021/12/14 04:52:31;;;;;;;52.83;17.50;;;;;;;8.22;70.85;100195.91;5098274;29;20056;-67
2021/12/14 04:55:21;;;;;;;46.80;17.20;;;;;;;7.91;71.11;100208.44;5089143;29;20414;-66
2021/12/14 04:58:14;;;;;;;56.45;18.95;;;;;;;7.95;71.84;100209.09;5101091;29;20449;-67
2021/12/14 05:01:06;;;;;;;56.33;22.08;;;;;;;7.96;72.08;100209.00;5105291;29;20129;-66
2021/12/14 05:03:59;;;;;;;59.60;23.57;;;;;;;8.07;71.02;100218.03;5099014;29;20052;-66
2021/12/14 05:07:02;;;;;;;57.92;23.15;;;;;;;8.10;71.05;100218.69;5093382;29;20210;-67
2021/12/14 05:09:53;;;;;;;66.20;23.90;;;;;;;7.93;72.31;100214.47;5091912;29;20059;-67
2021/12/14 05:12:44;;;;;;;69.65;24.35;;;;;;;8.08;71.89;100198.56;5095404;29;20425;-67
2021/12/14 05:15:42;;;;;;;63.90;24.83;;;;;;;8.27;70.60;100206.19;5111600;29;20078;-67
2021/12/14 05:18:36;;;;;;;47.13;17.45;;;;;;;8.05;70.86;100204.09;5101204;29;20139;-67
2021/12/14 05:21:37;;;;;;;42.80;15.88;;;;;;;7.99;71.81;100216.72;5097189;29;20099;-67
2021/12/14 05:24:30;;;;;;;44.80;15.65;;;;;;;8.09;71.67;100226.72;5098647;29;20194;-69
2021/12/14 05:27:29;;;;;;;39.80;14.82;;;;;;;7.78;71.76;100212.78;5097045;29;20068;-68
2021/12/14 05:30:34;;;;;;;39.95;14.45;;;;;;;7.84;72.28;100195.72;5094105;29;20088;-68
2021/12/14 05:33:35;;;;;;;41.40;15.40;;;;;;;7.87;71.44;100206.94;5085968;29;20106;-66
2021/12/14 05:36:44;;;;;;;38.92;13.80;;;;;;;7.80;71.75;100200.34;5099663;29;20085;-66
2021/12/14 05:45:57;;;;;;;45.00;14.02;;;;;;;7.82;71.43;100197.63;5099988;29;20063;-66
2021/12/14 05:48:57;;;;;;;34.67;13.80;;;;;;;7.61;71.91;100194.50;5100599;29;20134;-68
2021/12/14 05:51:49;;;;;;;40.55;14.23;;;;;;;7.67;72.12;100202.06;5100381;29;20055;-67
2021/12/14 05:54:39;;;;;;;39.63;15.20;;;;;;;7.56;71.76;100197.44;5094968;29;20438;-69
2021/12/14 05:57:30;;;;;;;37.70;14.65;;;;;;;7.73;71.91;100204.31;5098449;29;20498;-66
2021/12/14 06:00:25;;;;;;;39.80;14.15;;;;;;;7.80;71.34;100188.94;5086852;29;20134;-65
2021/12/14 06:03:38;;;;;;;40.50;15.60;;;;;;;7.91;70.71;100197.00;5083364;29;20063;-65
2021/12/14 06:06:40;;;;;;;38.70;15.50;;;;;;;7.76;71.55;100190.94;5082284;29;20426;-67
2021/12/14 06:09:37;;;;;;;42.47;16.05;;;;;;;7.78;71.47;100196.94;5089971;29;20058;-65
2021/12/14 06:12:40;;;;;;;49.00;17.75;;;;;;;8.13;70.25;100175.38;5102595;29;20047;-66
2021/12/14 06:15:33;;;;;;;45.65;17.33;;;;;;;7.94;70.47;100194.19;5090142;29;20040;-68
2021/12/14 06:18:35;;;;;;;46.33;16.55;;;;;;;7.94;70.59;100184.47;5101522;29;20108;-70
2021/12/14 06:21:34;;;;;;;48.88;17.42;;;;;;;7.92;70.54;100198.72;5094179;29;20529;-68
2021/12/14 06:24:28;;;;;;;48.58;17.10;;;;;;;7.99;69.84;100185.03;5106875;29;20067;-66
2021/12/14 06:27:23;;;;;;;47.00;16.70;;;;;;;7.96;70.50;100195.78;5088319;29;20047;-66
2021/12/14 06:30:23;;;;;;;44.38;16.38;;;;;;;8.11;70.12;100171.97;5100174;29;20138;-66
2021/12/14 06:33:19;;;;;;;45.97;16.98;;;;;;;7.69;70.41;100184.34;5071528;29;20138;-70
2021/12/14 06:36:43;;;;;;;47.13;17.33;;;;;;;7.59;72.69;100193.78;5097679;29;20864;-67
2021/12/14 06:40:03;;;;;;;44.45;17.08;;;;;;;7.99;70.10;100200.88;5105950;28;20124;-68
2021/12/14 06:42:57;;;;;;;44.88;16.58;;;;;;;8.19;69.74;100175.81;5108007;29;20538;-68
2021/12/14 06:45:55;;;;;;;49.38;16.42;;;;;;;7.90;69.28;100182.13;5108947;29;20126;-67
2021/12/14 06:49:14;;;;;;;43.45;15.63;;;;;;;6.96;72.85;100172.09;5111900;29;20409;-66
2021/12/14 06:52:07;;;;;;;43.60;15.00;;;;;;;7.14;72.79;100175.38;5104037;29;20739;-66
2021/12/14 06:55:18;;;;;;;46.55;14.98;;;;;;;7.07;72.19;100163.53;5096192;29;20419;-67
2021/12/14 06:58:38;;;;;;;52.67;18.23;;;;;;;6.93;73.15;100151.16;5106579;29;20109;-66
2021/12/14 07:01:33;;;;;;;37.30;14.55;;;;;;;7.53;70.58;100163.34;5105816;29;20482;-67
2021/12/14 07:04:32;;;;;;;37.92;13.80;;;;;;;7.44;70.65;100155.97;5090716;29;20096;-68
2021/12/14 07:07:27;;;;;;;38.80;13.23;;;;;;;6.95;72.51;100154.53;5110555;29;20052;-69
2021/12/14 07:10:20;;;;;;;37.90;14.55;;;;;;;7.07;70.81;100151.19;5105770;29;20479;-67
2021/12/14 07:13:14;;;;;;;40.63;14.73;;;;;;;6.95;72.27;100153.69;5110971;29;20043;-67
2021/12/14 07:16:19;;;;;;;;;;;;;;;7.17;71.69;100143.56;5089039;29;20099;-66
2021/12/14 07:19:13;;;;;;;39.70;14.00;;;;;;;6.93;72.07;100138.00;5099177;29;19945;-66
2021/12/14 07:22:03;;;;;;;44.03;13.65;;;;;;;6.95;72.44;100141.34;5104255;29;20166;-66
2021/12/14 07:25:15;;;;;;;33.60;13.32;;;;;;;7.15;71.23;100145.44;5102480;29;20521;-66
2021/12/14 07:28:13;;;;;;;35.72;13.60;;;;;;;6.77;72.52;100155.66;5097656;29;20102;-67
2021/12/14 07:31:13;;;;;;;33.47;13.30;;;;;;;7.11;71.66;100185.28;5103515;29;20048;-67
2021/12/14 07:34:04;;;;;;;37.50;13.90;;;;;;;7.25;70.68;100186.16;5098886;29;20573;-67
2021/12/14 07:36:54;;;;;;;36.58;13.15;;;;;;;6.73;73.00;100180.50;5083263;29;20138;-67
2021/12/14 07:39:50;;;;;;;34.35;13.07;;;;;;;6.52;73.19;100177.31;5104836;29;20430;-67
2021/12/14 07:42:40;;;;;;;37.70;15.75;;;;;;;6.82;71.74;100169.41;5110170;29;20111;-67
2021/12/14 07:45:31;;;;;;;36.85;13.70;;;;;;;7.11;71.74;100180.00;5097731;29;20058;-66
2021/12/14 07:48:36;;;;;;;33.47;13.07;;;;;;;7.37;70.98;100184.53;5102898;29;20067;-67
2021/12/14 07:51:30;;;;;;;32.90;12.98;;;;;;;6.65;72.28;100178.31;5086943;29;20063;-67
2021/12/14 07:54:26;;;;;;;25.05;12.02;;;;;;;7.10;71.09;100173.88;5096938;29;20067;-67
2021/12/14 07:57:21;;;;;;;30.20;12.75;;;;;;;7.26;70.36;100205.47;5102075;29;20055;-67
2021/12/14 08:00:24;;;;;;;27.77;12.40;;;;;;;7.47;69.90;100217.34;5103440;29;20675;-67
2021/12/14 08:03:25;;;;;;;26.77;12.52;;;;;;;7.43;69.72;100218.47;5096514;29;20056;-67
2021/12/14 08:06:15;;;;;;;31.70;13.02;;;;;;;7.37;69.57;100233.81;5100086;29;20140;-67
2021/12/14 08:09:05;;;;;;;27.92;11.98;;;;;;;7.56;67.93;100218.56;5104712;29;20137;-67
2021/12/14 08:11:55;;;;;;;27.23;12.70;;;;;;;7.43;68.38;100209.72;5085102;29;20115;-66
2021/12/14 08:14:45;;;;;;;24.50;12.10;;;;;;;7.39;68.77;100227.53;5085131;29;20044;-66
2021/12/14 08:17:36;;;;;;;25.02;11.73;;;;;;;7.56;67.56;100223.84;5098193;29;20095;-66
2021/12/14 08:20:26;;;;;;;24.17;10.90;;;;;;;7.34;68.53;100248.03;5097470;29;20055;-67
2021/12/14 08:23:27;;;;;;;24.70;11.68;;;;;;;7.36;69.12;100247.97;5097939;29;20142;-67
2021/12/14 08:26:23;;;;;;;25.05;11.57;;;;;;;7.48;68.58;100253.34;5101279;29;20545;-67
2021/12/14 08:29:21;;;;;;;23.45;11.52;;;;;;;7.16;70.22;100220.16;5102880;29;20074;-68
2021/12/14 08:32:14;;;;;;;21.90;10.32;;;;;;;7.43;68.72;100246.66;5089604;29;20047;-66
2021/12/14 08:35:12;;;;;;;22.52;10.75;;;;;;;7.54;68.43;100245.03;5083737;29;20052;-66
2021/12/14 08:38:04;;;;;;;21.27;10.82;;;;;;;7.49;68.65;100251.56;5097165;29;20055;-67
2021/12/14 08:41:00;;;;;;;20.58;11.07;;;;;;;7.76;67.36;100227.88;5102312;29;20058;-67
2021/12/14 08:43:52;;;;;;;22.33;11.18;;;;;;;7.78;67.00;100244.47;5101856;29;20553;-66
2021/12/14 08:46:42;;;;;;;22.27;10.93;;;;;;;7.51;68.09;100236.47;5090706;29;20211;-67
2021/12/14 08:49:34;;;;;;;22.70;11.20;;;;;;;7.89;66.57;100214.78;5096751;29;20107;-67
2021/12/14 08:52:25;;;;;;;20.67;10.70;;;;;;;7.52;68.27;100239.03;5102108;29;20058;-67
2021/12/14 08:55:17;;;;;;;24.02;11.65;;;;;;;7.48;69.90;100248.09;5102339;29;20530;-67
2021/12/14 08:58:07;;;;;;;27.55;13.85;;;;;;;7.55;69.48;100227.44;5101289;29;20421;-67
2021/12/14 09:01:06;;;;;;;28.05;12.85;;;;;;;7.73;68.41;100238.63;5096658;29;20054;-67
2021/12/14 09:04:06;;;;;;;27.65;12.77;;;;;;;7.85;68.60;100242.31;5100967;29;20182;-67
2021/12/14 09:07:03;;;;;;;25.50;12.18;;;;;;;7.65;68.98;100243.53;5086907;29;20059;-67
2021/12/14 09:09:56;;;;;;;24.10;11.68;;;;;;;7.69;68.61;100239.78;5084936;29;20055;-67
2021/12/14 09:12:49;;;;;;;25.90;12.63;;;;;;;7.91;67.50;100250.72;5086381;29;20195;-67
2021/12/14 09:15:55;;;;;;;27.10;12.35;;;;;;;7.70;68.45;100241.47;5096011;29;20165;-67
2021/12/14 09:18:50;;;;;;;28.35;12.95;;;;;;;7.92;67.10;100243.63;5101235;29;20549;-67
2021/12/14 09:21:45;;;;;;;26.02;12.95;;;;;;;7.59;67.68;100243.94;5101713;29;20573;-67
2021/12/14 09:24:36;;;;;;;23.15;12.30;;;;;;;7.67;68.61;100241.66;5101041;29;20054;-67
2021/12/14 09:27:30;;;;;;;24.95;12.50;;;;;;;7.88;67.64;100242.97;5086055;29;20056;-67
2021/12/14 09:30:23;;;;;;;24.42;12.75;;;;;;;7.84;67.77;100246.72;5083522;29;20553;-67
2021/12/14 09:33:15;;;;;;;23.17;12.68;;;;;;;7.88;67.88;100239.47;5082752;29;20055;-67
2021/12/14 09:36:12;;;;;;;27.52;12.25;;;;;;;7.85;67.03;100243.16;5082601;29;20122;-68
2021/12/14 09:39:10;;;;;;;26.40;13.93;;;;;;;8.14;67.27;100264.22;5096859;29;20050;-68
2021/12/14 09:42:09;;;;;;;28.08;14.10;;;;;;;8.04;67.30;100242.84;5092643;29;20047;-68
2021/12/14 09:45:12;;;;;;;25.77;12.80;;;;;;;8.20;67.07;100234.78;5084656;29;20063;-69
2021/12/14 09:48:04;;;;;;;24.30;13.45;;;;;;;7.92;68.16;100238.34;5097276;29;20059;-68
2021/12/14 09:50:57;;;;;;;29.70;13.85;;;;;;;7.66;67.95;100237.31;5101285;29;20437;-69
2021/12/14 09:53:55;;;;;;;27.98;14.27;;;;;;;7.84;68.94;100237.97;5100908;29;20059;-67
2021/12/14 09:56:51;;;;;;;23.48;12.65;;;;;;;7.92;67.23;100252.41;5099936;29;20155;-67
2021/12/14 09:59:42;;;;;;;25.75;13.25;;;;;;;7.62;69.10;100247.22;5097064;29;20067;-68
2021/12/14 10:02:36;;;;;;;25.30;13.40;;;;;;;8.05;67.61;100246.34;5103026;29;20051;-67
2021/12/14 10:05:45;;;;;;;25.00;13.32;;;;;;;7.90;68.65;100253.44;5082604;29;20472;-69
2021/12/14 10:08:43;;;;;;;23.95;12.38;;;;;;;7.83;67.90;100245.03;5097758;29;20062;-67
2021/12/14 10:11:59;;;;;;;24.88;12.35;;;;;;;7.55;68.81;100245.91;5088124;29;20075;-68
2021/12/14 10:14:53;;;;;;;23.95;13.30;;;;;;;7.86;67.87;100231.66;5096240;29;20057;-67
2021/12/14 10:17:45;;;;;;;28.75;13.38;;;;;;;7.71;68.46;100241.34;5105247;29;20118;-67
2021/12/14 10:20:42;;;;;;;25.02;14.02;;;;;;;7.80;68.03;100239.94;5105419;29;20135;-67
2021/12/14 10:23:34;;;;;;;25.85;13.88;;;;;;;7.80;67.39;100237.31;5100332;29;20059;-69
2021/12/14 10:26:27;;;;;;;26.33;14.05;;;;;;;7.92;68.14;100231.28;5099247;29;20067;-69
2021/12/14 10:29:18;;;;;;;26.08;13.63;;;;;;;7.76;68.36;100230.53;5105085;29;20070;-67
2021/12/14 10:32:15;;;;;;;24.33;14.15;;;;;;;7.93;67.31;100221.56;5104736;29;20533;-68
2021/12/14 10:35:10;;;;;;;25.95;13.52;;;;;;;8.23;67.48;100230.16;5103706;29;20466;-68
2021/12/14 10:38:31;;;;;;;;;;;;;;;8.18;67.46;100239.34;5100340;29;20054;-69
2021/12/14 10:44:38;;;;;;;25.42;14.30;;;;;;;8.23;67.84;100242.53;5104976;29;20066;-70
2021/12/14 10:47:30;;;;;;;27.58;14.60;;;;;;;8.23;67.32;100237.22;5104252;29;20130;-71
2021/12/14 10:50:26;;;;;;;26.02;13.93;;;;;;;8.31;66.17;100240.25;5104706;29;20063;-67
2021/12/14 10:53:19;;;;;;;26.17;14.45;;;;;;;8.44;67.07;100238.53;5086682;29;20096;-69
2021/12/14 10:56:14;;;;;;;26.38;14.27;;;;;;;8.51;66.91;100240.75;5089269;29;20051;-68
2021/12/14 10:59:06;;;;;;;26.60;15.00;;;;;;;8.54;66.25;100232.63;5084933;29;20092;-67
2021/12/14 11:01:57;;;;;;;26.38;14.07;;;;;;;8.54;67.34;100228.19;5100416;29;20051;-66
2021/12/14 11:04:57;;;;;;;26.35;13.90;;;;;;;8.44;66.36;100225.31;5104417;29;20478;-67
2021/12/14 11:07:48;;;;;;;28.27;15.02;;;;;;;8.39;67.40;100242.41;5098977;29;20063;-66
2021/12/14 11:10:39;;;;;;;25.42;14.13;;;;;;;8.65;66.29;100241.56;5115721;28;20529;-68
2021/12/14 11:13:42;;;;;;;23.85;14.45;;;;;;;8.46;66.33;100244.56;5085552;29;20055;-69
2021/12/14 11:20:05;;;;;;;29.20;15.93;;;;;;;8.63;66.09;100211.72;5104367;29;20062;-66
2021/12/14 11:23:09;;;;;;;23.98;13.65;;;;;;;8.51;67.37;100223.13;5104167;29;20051;-67
2021/12/14 11:26:11;;;;;;;;;;;;;;;8.51;67.19;100232.81;5091410;29;20060;-66
2021/12/14 11:29:10;;;;;;;26.88;14.60;;;;;;;8.86;65.34;100241.09;5089122;29;20001;-67
2021/12/14 11:32:02;;;;;;;28.13;15.25;;;;;;;8.61;66.57;100239.19;5092635;29;20055;-67
2021/12/14 11:34:53;;;;;;;27.08;15.27;;;;;;;8.75;66.45;100243.59;5085059;29;20063;-69
2021/12/14 11:37:43;;;;;;;30.70;15.70;;;;;;;8.75;65.88;100243.59;5084861;29;20063;-70
2021/12/14 11:40:35;;;;;;;26.55;14.70;;;;;;;8.97;65.51;100227.13;5084680;29;20080;-68
2021/12/14 11:43:29;;;;;;;29.70;15.40;;;;;;;8.70;65.82;100231.50;5103287;29;20139;-67
2021/12/14 11:46:20;;;;;;;28.10;14.85;;;;;;;9.27;64.20;100221.56;5102862;29;20050;-68
2021/12/14 11:49:10;;;;;;;28.67;14.65;;;;;;;8.94;65.04;100220.28;5103662;29;20422;-67
2021/12/14 11:52:00;;;;;;;25.73;14.52;;;;;;;8.97;65.02;100222.69;5088493;29;20110;-68
2021/12/14 11:54:50;;;;;;;31.08;15.82;;;;;;;8.80;66.81;100215.88;5084740;29;20055;-67
2021/12/14 11:57:40;;;;;;;31.88;17.58;;;;;;;8.95;66.71;100195.50;5088887;29;20197;-67
2021/12/14 12:00:32;;;;;;;31.98;17.52;;;;;;;9.23;65.15;100215.63;5089093;29;20176;-67
2021/12/14 12:03:52;;;;;;;33.17;16.33;;;;;;;9.09;65.59;100208.63;5094142;29;20047;-68
2021/12/14 12:09:53;;;;;;;27.15;15.38;;;;;;;9.26;64.06;100210.13;5102740;29;20062;-67
2021/12/14 12:12:43;;;;;;;28.23;15.77;;;;;;;8.99;66.13;100201.44;5086546;29;20084;-67
2021/12/14 12:15:39;;;;;;;29.98;15.27;;;;;;;9.09;65.68;100199.84;5097290;29;20111;-67
2021/12/14 12:18:29;;;;;;;25.42;15.00;;;;;;;8.96;65.80;100207.78;5103073;29;20046;-67
2021/12/14 12:21:28;;;;;;;23.63;14.10;;;;;;;8.81;66.09;100196.44;5102807;29;20051;-67
2021/12/14 12:24:35;;;;;;;26.75;14.93;;;;;;;8.87;66.46;100203.09;5102165;29;20058;-67
2021/12/14 12:27:32;;;;;;;25.85;13.98;;;;;;;9.06;66.03;100197.41;5083524;29;20055;-68
2021/12/14 12:30:38;;;;;;;28.15;14.43;;;;;;;8.83;67.13;100196.31;5095974;29;20103;-69
2021/12/14 12:33:36;;;;;;;25.98;14.20;;;;;;;8.96;67.33;100196.34;5102954;29;20063;-69
2021/12/14 12:36:41;;;;;;;30.83;14.00;;;;;;;9.01;66.22;100186.31;5102096;29;20426;-67
2021/12/14 12:39:32;;;;;;;29.88;13.73;;;;;;;9.30;66.41;100190.44;5102085;29;20782;-67
2021/12/14 12:42:22;;;;;;;27.67;13.50;;;;;;;9.05;66.68;100164.00;5108358;29;20067;-69
2021/12/14 12:45:33;;;;;;;27.95;13.57;;;;;;;9.04;66.59;100194.03;5089247;29;20063;-66
2021/12/14 12:48:51;;;;;;;33.33;14.50;;;;;;;8.96;67.55;100196.34;5096064;29;20052;-68
2021/12/14 12:51:52;;;;;;;27.90;14.10;;;;;;;9.05;67.02;100183.34;5102125;29;20576;-72
2021/12/14 12:55:06;;;;;;;31.85;14.07;;;;;;;9.24;67.57;100184.72;5097045;29;20060;-71
2021/12/14 12:58:13;;;;;;;32.50;14.30;;;;;;;9.10;67.02;100167.97;5121361;28;20196;-72
2021/12/14 13:01:06;;;;;;;34.33;13.60;;;;;;;9.49;65.83;100183.88;5106253;29;20071;-70
2021/12/14 13:03:58;;;;;;;31.90;14.32;;;;;;;9.33;66.78;100192.03;5111317;29;20043;-70
2021/12/14 13:07:04;;;;;;;32.40;14.82;;;;;;;9.03;68.07;100187.88;5093685;29;20533;-72
2021/12/14 13:10:23;;;;;;;31.08;14.48;;;;;;;9.09;67.59;100184.81;5100947;29;20650;-66
2021/12/14 13:13:22;;;;;;;34.10;16.05;;;;;;;9.13;67.81;100194.22;5102874;29;20051;-67
2021/12/14 13:16:40;;;;;;;54.35;16.33;;;;;;;9.17;68.00;100189.56;5105911;29;20114;-67
2021/12/14 13:19:32;;;;;;;49.10;17.90;;;;;;;9.13;67.68;100196.03;5110632;29;20050;-69
2021/12/14 13:22:22;;;;;;;39.05;17.70;;;;;;;9.05;68.08;100198.38;5106573;29;20574;-68
2021/12/14 13:25:12;;;;;;;40.28;18.77;;;;;;;9.00;68.03;100193.38;5103171;29;20054;-68
2021/12/14 13:28:04;;;;;;;34.75;17.00;;;;;;;8.94;68.05;100193.81;5104118;29;20133;-69
2021/12/14 13:30:55;;;;;;;41.22;17.50;;;;;;;8.96;68.30;100188.41;5101036;29;20058;-67
2021/12/14 13:33:46;;;;;;;36.72;17.65;;;;;;;8.95;68.87;100200.81;5103863;29;20046;-67
2021/12/14 13:36:37;;;;;;;36.85;17.55;;;;;;;8.88;69.34;100205.66;5091012;29;20124;-67
2021/12/14 13:39:29;;;;;;;41.53;18.65;;;;;;;8.63;70.15;100195.84;5096151;29;20146;-67
2021/12/14 13:42:31;;;;;;;45.75;18.67;;;;;;;7.88;72.31;100205.13;5086200;29;20138;-69
2021/12/14 13:45:27;;;;;;;46.33;19.08;;;;;;;8.17;72.46;100213.84;5087796;29;20104;-68
2021/12/14 13:48:25;;;;;;;50.97;20.30;;;;;;;8.45;70.17;100211.16;5082373;29;20507;-66
2021/12/14 13:51:19;;;;;;;49.20;20.75;;;;;;;8.27;72.06;100211.47;5082258;29;20104;-67
2021/12/14 13:54:09;;;;;;;52.28;20.88;;;;;;;8.23;71.69;100211.66;5092926;29;20039;-67
2021/12/14 13:56:59;;;;;;;48.28;20.45;;;;;;;8.21;72.39;100213.56;5101145;29;20070;-67
2021/12/14 13:59:49;;;;;;;50.42;20.40;;;;;;;8.68;69.91;100203.50;5101610;29;20052;-66
2021/12/14 14:02:39;;;;;;;52.30;20.52;;;;;;;8.83;70.02;100209.56;5101196;29;20055;-66
2021/12/14 14:05:30;;;;;;;43.58;20.10;;;;;;;8.90;69.67;100203.75;5101326;29;20127;-65